createdAt,value
2022-12-04T00:00:33.384Z,163.50
2022-12-04T00:01:33.434Z,164.70
2022-12-04T00:02:33.409Z,236.60
2022-12-04T00:03:33.369Z,349.80
2022-12-04T00:04:33.400Z,211.00
2022-12-04T00:05:33.352Z,231.70
2022-12-04T00:06:33.371Z,222.00
2022-12-04T00:07:33.327Z,168.90
2022-12-04T00:08:33.313Z,146.90
2022-12-04T00:09:33.290Z,149.90
2022-12-04T00:10:33.292Z,150.90
2022-12-04T00:11:33.326Z,171.50
2022-12-04T00:12:33.283Z,244.60
2022-12-04T00:13:33.243Z,359.40
2022-12-04T00:14:33.236Z,340.50
2022-12-04T00:15:33.228Z,321.80
2022-12-04T00:16:33.323Z,313.20
2022-12-04T00:17:33.232Z,303.20
2022-12-04T00:18:33.190Z,300.60
2022-12-04T00:19:33.161Z,258.90
2022-12-04T00:20:33.166Z,195.80
2022-12-04T00:21:33.206Z,186.90
2022-12-04T00:22:33.151Z,183.50
2022-12-04T00:23:33.138Z,203.00
2022-12-04T00:24:33.123Z,211.00
2022-12-04T00:25:37.762Z,333.70
2022-12-04T00:26:34.136Z,341.50
2022-12-04T00:27:33.080Z,364.00
2022-12-04T00:28:33.059Z,299.20
2022-12-04T00:29:33.055Z,238.00
2022-12-04T00:30:33.040Z,189.30
2022-12-04T00:31:33.114Z,151.30
2022-12-04T00:32:33.066Z,178.40
2022-12-04T00:33:33.048Z,204.20
2022-12-04T00:34:33.015Z,192.20
2022-12-04T00:35:32.999Z,173.80
2022-12-04T00:36:33.015Z,185.30
2022-12-04T00:37:33.009Z,319.40
2022-12-04T00:38:32.976Z,336.40
2022-12-04T00:39:32.959Z,344.50
2022-12-04T00:40:32.944Z,335.00
2022-12-04T00:41:32.933Z,320.90
2022-12-04T00:42:32.987Z,308.70
2022-12-04T00:43:32.911Z,303.40
2022-12-04T00:44:32.887Z,195.20
2022-12-04T00:45:32.969Z,199.80
2022-12-04T00:46:32.864Z,175.50
2022-12-04T00:47:32.911Z,166.90
2022-12-04T00:48:32.860Z,175.90
2022-12-04T00:49:32.832Z,164.80
2022-12-04T00:50:32.819Z,200.50
2022-12-04T00:51:32.803Z,200.90
2022-12-04T00:52:32.835Z,196.80
2022-12-04T00:53:32.790Z,337.20
2022-12-04T00:54:32.798Z,367.60
2022-12-04T00:55:32.778Z,371.80
2022-12-04T00:56:32.750Z,355.00
2022-12-04T00:57:32.773Z,210.30
2022-12-04T00:58:32.713Z,201.10
2022-12-04T00:59:32.703Z,193.10
2022-12-04T01:00:32.716Z,176.80
2022-12-04T01:01:32.751Z,185.50
2022-12-04T01:02:32.738Z,186.50
2022-12-04T01:03:32.749Z,179.70
2022-12-04T01:04:32.673Z,191.30
2022-12-04T01:05:32.678Z,201.20
2022-12-04T01:06:32.616Z,374.40
2022-12-04T01:07:32.773Z,447.00
2022-12-04T01:08:32.639Z,353.30
2022-12-04T01:09:32.606Z,308.50
2022-12-04T01:10:32.574Z,201.40
2022-12-04T01:11:32.587Z,199.40
2022-12-04T01:12:32.610Z,205.90
2022-12-04T01:13:32.565Z,197.10
2022-12-04T01:14:32.547Z,176.80
2022-12-04T01:15:32.571Z,183.00
2022-12-04T01:16:32.611Z,170.50
2022-12-04T01:17:32.559Z,159.20
2022-12-04T01:18:32.483Z,155.70
2022-12-04T01:19:32.506Z,176.20
2022-12-04T01:20:32.481Z,182.70
2022-12-04T01:21:32.460Z,158.20
2022-12-04T01:22:32.493Z,198.70
2022-12-04T01:23:32.452Z,155.10
2022-12-04T01:24:32.440Z,185.60
2022-12-04T01:25:32.422Z,155.70
2022-12-04T01:26:32.418Z,164.30
2022-12-04T01:27:32.427Z,198.40
2022-12-04T01:28:32.403Z,202.30
2022-12-04T01:29:32.358Z,161.40
2022-12-04T01:30:32.394Z,220.60
2022-12-04T01:31:32.405Z,174.10
2022-12-04T01:32:32.392Z,223.50
2022-12-04T01:33:32.312Z,272.30
2022-12-04T01:34:32.317Z,154.10
2022-12-04T01:35:32.317Z,162.60
2022-12-04T01:36:32.298Z,164.80
2022-12-04T01:37:32.306Z,181.30
2022-12-04T01:38:32.317Z,168.40
2022-12-04T01:39:32.294Z,163.80
2022-12-04T01:40:32.253Z,181.70
2022-12-04T01:41:32.268Z,180.80
2022-12-04T01:42:32.240Z,194.20
2022-12-04T01:43:32.269Z,192.00
2022-12-04T01:44:32.210Z,171.80
2022-12-04T01:45:32.270Z,183.80
2022-12-04T01:46:32.174Z,174.20
2022-12-04T01:47:32.183Z,238.00
2022-12-04T01:48:32.203Z,208.20
2022-12-04T01:49:32.140Z,200.00
2022-12-04T01:50:32.142Z,193.00
2022-12-04T01:51:32.140Z,218.80
2022-12-04T01:52:32.128Z,227.80
2022-12-04T01:53:32.143Z,199.20
2022-12-04T01:54:32.101Z,302.10
2022-12-04T01:55:32.082Z,193.30
2022-12-04T01:56:32.073Z,279.60
2022-12-04T01:57:32.133Z,202.70
2022-12-04T01:58:32.072Z,193.80
2022-12-04T01:59:32.025Z,216.80
2022-12-04T02:00:32.036Z,236.70
2022-12-04T02:01:32.094Z,176.60
2022-12-04T02:02:32.172Z,192.90
2022-12-04T02:03:32.036Z,163.30
2022-12-04T02:04:31.980Z,220.60
2022-12-04T02:05:32.015Z,224.50
2022-12-04T02:06:31.963Z,204.10
2022-12-04T02:07:32.148Z,269.60
2022-12-04T02:08:31.946Z,230.40
2022-12-04T02:09:31.963Z,229.30
2022-12-04T02:10:31.882Z,248.50
2022-12-04T02:11:31.904Z,204.90
2022-12-04T02:12:31.976Z,195.80
2022-12-04T02:13:31.877Z,228.40
2022-12-04T02:14:31.904Z,239.10
2022-12-04T02:15:31.850Z,252.70
2022-12-04T02:16:31.938Z,183.30
2022-12-04T02:17:31.834Z,244.00
2022-12-04T02:18:31.807Z,258.90
2022-12-04T02:19:31.849Z,178.50
2022-12-04T02:20:31.805Z,233.80
2022-12-04T02:21:31.784Z,200.20
2022-12-04T02:22:31.778Z,154.00
2022-12-04T02:23:31.779Z,278.20
2022-12-04T02:24:31.775Z,279.60
2022-12-04T02:25:31.741Z,192.80
2022-12-04T02:26:31.741Z,206.50
2022-12-04T02:27:31.722Z,184.90
2022-12-04T02:28:31.686Z,185.80
2022-12-04T02:29:31.728Z,218.10
2022-12-04T02:30:31.698Z,282.90
2022-12-04T02:31:31.674Z,238.10
2022-12-04T02:32:31.660Z,201.60
2022-12-04T02:33:31.658Z,207.10
2022-12-04T02:34:31.675Z,183.00
2022-12-04T02:35:31.620Z,173.50
2022-12-04T02:36:31.634Z,216.30
2022-12-04T02:37:31.612Z,203.10
2022-12-04T02:38:31.599Z,202.60
2022-12-04T02:39:31.624Z,211.30
2022-12-04T02:40:31.555Z,215.00
2022-12-04T02:41:31.574Z,210.20
2022-12-04T02:42:31.546Z,221.20
2022-12-04T02:43:31.539Z,222.50
2022-12-04T02:44:31.568Z,211.10
2022-12-04T02:45:31.581Z,219.00
2022-12-04T02:46:31.563Z,277.40
2022-12-04T02:47:31.502Z,237.90
2022-12-04T02:48:31.482Z,208.80
2022-12-04T02:49:31.465Z,214.20
2022-12-04T02:50:31.483Z,242.70
2022-12-04T02:51:31.481Z,207.70
2022-12-04T02:52:31.448Z,232.70
2022-12-04T02:53:31.419Z,164.20
2022-12-04T02:54:31.423Z,198.30
2022-12-04T02:55:31.446Z,180.00
2022-12-04T02:56:31.374Z,197.40
2022-12-04T02:57:31.370Z,174.90
2022-12-04T02:58:31.341Z,161.90
2022-12-04T02:59:31.342Z,195.60
2022-12-04T03:00:31.356Z,207.00
2022-12-04T03:01:31.414Z,186.20
2022-12-04T03:02:31.381Z,191.70
2022-12-04T03:03:31.297Z,202.70
2022-12-04T03:04:31.300Z,217.50
2022-12-04T03:05:31.314Z,212.20
2022-12-04T03:06:31.272Z,192.70
2022-12-04T03:07:31.301Z,160.60
2022-12-04T03:08:31.253Z,246.60
2022-12-04T03:09:31.242Z,171.80
2022-12-04T03:10:31.255Z,171.90
2022-12-04T03:11:31.233Z,175.90
2022-12-04T03:12:31.195Z,180.70
2022-12-04T03:13:31.185Z,189.50
2022-12-04T03:14:31.178Z,184.10
2022-12-04T03:15:31.231Z,206.20
2022-12-04T03:16:31.249Z,197.60
2022-12-04T03:17:31.173Z,189.40
2022-12-04T03:18:31.134Z,170.20
2022-12-04T03:19:31.122Z,194.40
2022-12-04T03:20:31.186Z,213.70
2022-12-04T03:21:31.090Z,174.80
2022-12-04T03:22:31.089Z,182.00
2022-12-04T03:23:31.073Z,177.60
2022-12-04T03:24:31.061Z,178.80
2022-12-04T03:25:31.114Z,190.10
2022-12-04T03:26:31.035Z,219.30
2022-12-04T03:27:31.059Z,223.10
2022-12-04T03:28:31.011Z,232.10
2022-12-04T03:29:31.010Z,233.60
2022-12-04T03:30:31.083Z,373.30
2022-12-04T03:31:30.970Z,358.30
2022-12-04T03:32:31.011Z,368.90
2022-12-04T03:33:30.967Z,289.30
2022-12-04T03:34:30.951Z,187.90
2022-12-04T03:35:30.996Z,200.90
2022-12-04T03:36:30.964Z,255.50
2022-12-04T03:37:30.925Z,224.90
2022-12-04T03:38:30.897Z,230.60
2022-12-04T03:39:30.924Z,242.00
2022-12-04T03:40:30.916Z,250.30
2022-12-04T03:41:30.886Z,221.50
2022-12-04T03:42:30.846Z,214.70
2022-12-04T03:43:30.859Z,214.00
2022-12-04T03:44:30.843Z,185.30
2022-12-04T03:45:30.866Z,188.20
2022-12-04T03:46:30.894Z,226.10
2022-12-04T03:47:30.796Z,192.70
2022-12-04T03:48:30.801Z,177.40
2022-12-04T03:49:30.785Z,193.70
2022-12-04T03:50:30.811Z,173.40
2022-12-04T03:51:30.760Z,192.10
2022-12-04T03:52:30.749Z,172.90
2022-12-04T03:53:30.736Z,167.10
2022-12-04T03:54:30.716Z,176.30
2022-12-04T03:55:30.776Z,172.40
2022-12-04T03:56:30.697Z,164.00
2022-12-04T03:57:30.727Z,188.70
2022-12-04T03:58:30.653Z,240.90
2022-12-04T03:59:30.658Z,166.90
2022-12-04T04:00:30.681Z,166.30
2022-12-04T04:01:30.666Z,165.80
2022-12-04T04:02:30.652Z,170.40
2022-12-04T04:03:30.614Z,182.40
2022-12-04T04:04:30.614Z,178.20
2022-12-04T04:05:30.602Z,212.30
2022-12-04T04:06:30.637Z,196.20
2022-12-04T04:07:35.306Z,242.00
2022-12-04T04:08:31.620Z,217.50
2022-12-04T04:09:30.565Z,214.10
2022-12-04T04:10:30.522Z,194.80
2022-12-04T04:11:30.550Z,156.20
2022-12-04T04:12:30.510Z,170.90
2022-12-04T04:13:30.502Z,174.50
2022-12-04T04:14:30.498Z,183.10
2022-12-04T04:15:30.524Z,209.20
2022-12-04T04:16:30.503Z,221.10
2022-12-04T04:17:36.496Z,258.10
2022-12-04T04:18:31.467Z,236.70
2022-12-04T04:19:30.441Z,231.50
2022-12-04T04:20:30.413Z,237.80
2022-12-04T04:21:30.467Z,219.00
2022-12-04T04:22:30.419Z,198.30
2022-12-04T04:23:30.394Z,220.30
2022-12-04T04:24:30.391Z,248.10
2022-12-04T04:25:30.380Z,221.90
2022-12-04T04:26:30.400Z,223.10
2022-12-04T04:27:30.351Z,221.80
2022-12-04T04:28:30.332Z,254.30
2022-12-04T04:29:30.315Z,201.60
2022-12-04T04:30:30.286Z,272.40
2022-12-04T04:31:30.371Z,232.00
2022-12-04T04:32:30.286Z,185.00
2022-12-04T04:33:30.279Z,199.30
2022-12-04T04:34:30.258Z,164.20
2022-12-04T04:35:30.269Z,235.40
2022-12-04T04:36:30.272Z,173.30
2022-12-04T04:37:30.227Z,195.30
2022-12-04T04:38:30.223Z,218.70
2022-12-04T04:39:30.211Z,174.70
2022-12-04T04:40:30.208Z,180.30
2022-12-04T04:41:30.222Z,243.10
2022-12-04T04:42:30.173Z,197.10
2022-12-04T04:43:30.163Z,219.90
2022-12-04T04:44:30.166Z,283.60
2022-12-04T04:45:30.143Z,221.10
2022-12-04T04:46:30.250Z,173.30
2022-12-04T04:47:30.114Z,204.80
2022-12-04T04:48:30.090Z,160.20
2022-12-04T04:49:30.096Z,248.50
2022-12-04T04:50:30.070Z,168.00
2022-12-04T04:51:30.090Z,188.80
2022-12-04T04:52:30.057Z,188.00
2022-12-04T04:53:30.060Z,175.70
2022-12-04T04:54:30.042Z,230.50
2022-12-04T04:55:30.027Z,233.30
2022-12-04T04:56:30.046Z,277.40
2022-12-04T04:57:30.000Z,225.60
2022-12-04T04:58:30.017Z,205.20
2022-12-04T04:59:29.964Z,186.90
2022-12-04T05:00:29.987Z,160.80
2022-12-04T05:01:30.011Z,227.40
2022-12-04T05:02:29.990Z,224.60
2022-12-04T05:03:29.929Z,160.00
2022-12-04T05:04:29.918Z,207.30
2022-12-04T05:05:29.918Z,198.40
2022-12-04T05:06:29.940Z,196.60
2022-12-04T05:07:29.955Z,204.00
2022-12-04T05:08:29.881Z,252.80
2022-12-04T05:09:29.853Z,254.30
2022-12-04T05:10:29.856Z,243.50
2022-12-04T05:11:29.888Z,240.40
2022-12-04T05:12:29.847Z,360.30
2022-12-04T05:13:29.788Z,394.30
2022-12-04T05:14:29.824Z,364.80
2022-12-04T05:15:29.792Z,310.50
2022-12-04T05:16:29.940Z,354.60
2022-12-04T05:17:29.782Z,317.40
2022-12-04T05:18:29.754Z,270.40
2022-12-04T05:19:29.761Z,212.90
2022-12-04T05:20:29.742Z,192.40
2022-12-04T05:21:29.761Z,229.50
2022-12-04T05:22:29.723Z,243.20
2022-12-04T05:23:29.701Z,271.80
2022-12-04T05:24:29.699Z,277.50
2022-12-04T05:25:29.707Z,262.20
2022-12-04T05:26:29.728Z,259.30
2022-12-04T05:27:29.643Z,185.70
2022-12-04T05:28:29.628Z,181.70
2022-12-04T05:29:35.576Z,189.90
2022-12-04T05:30:30.616Z,228.60
2022-12-04T05:31:29.674Z,230.70
2022-12-04T05:32:29.605Z,271.50
2022-12-04T05:33:29.590Z,224.30
2022-12-04T05:34:29.571Z,170.50
2022-12-04T05:35:29.574Z,176.60
2022-12-04T05:36:29.599Z,170.90
2022-12-04T05:37:29.543Z,169.40
2022-12-04T05:38:29.575Z,193.00
2022-12-04T05:39:29.514Z,200.10
2022-12-04T05:40:29.540Z,264.50
2022-12-04T05:41:29.561Z,251.90
2022-12-04T05:42:29.500Z,246.20
2022-12-04T05:43:29.479Z,276.40
2022-12-04T05:44:29.466Z,211.30
2022-12-04T05:45:29.468Z,169.30
2022-12-04T05:46:29.517Z,226.50
2022-12-04T05:47:29.474Z,152.90
2022-12-04T05:48:29.441Z,155.70
2022-12-04T05:49:29.398Z,195.30
2022-12-04T05:50:29.400Z,246.20
2022-12-04T05:51:29.371Z,229.20
2022-12-04T05:52:29.411Z,325.40
2022-12-04T05:53:29.342Z,185.00
2022-12-04T05:54:29.363Z,162.10
2022-12-04T05:55:29.320Z,154.40
2022-12-04T05:56:29.316Z,175.60
2022-12-04T05:57:30.115Z,207.20
2022-12-04T05:58:29.300Z,193.40
2022-12-04T05:59:29.264Z,215.50
2022-12-04T06:00:29.294Z,214.90
2022-12-04T06:01:29.293Z,221.00
2022-12-04T06:02:29.382Z,224.70
2022-12-04T06:03:29.284Z,248.20
2022-12-04T06:04:29.243Z,230.10
2022-12-04T06:05:29.227Z,275.70
2022-12-04T06:06:29.221Z,261.40
2022-12-04T06:07:29.281Z,221.40
2022-12-04T06:08:29.207Z,151.30
2022-12-04T06:09:29.166Z,191.40
2022-12-04T06:10:29.163Z,199.10
2022-12-04T06:11:29.161Z,215.70
2022-12-04T06:12:29.220Z,240.00
2022-12-04T06:13:29.131Z,242.30
2022-12-04T06:14:29.136Z,243.20
2022-12-04T06:15:29.116Z,169.80
2022-12-04T06:16:29.134Z,194.70
2022-12-04T06:17:29.155Z,243.60
2022-12-04T06:18:29.082Z,229.10
2022-12-04T06:19:29.070Z,255.70
2022-12-04T06:20:29.094Z,160.70
2022-12-04T06:21:29.033Z,182.60
2022-12-04T06:22:29.074Z,209.30
2022-12-04T06:23:29.038Z,206.50
2022-12-04T06:24:29.018Z,189.60
2022-12-04T06:25:29.005Z,244.60
2022-12-04T06:26:28.977Z,263.40
2022-12-04T06:27:29.162Z,242.20
2022-12-04T06:28:28.966Z,191.60
2022-12-04T06:29:28.936Z,150.20
2022-12-04T06:30:28.930Z,205.50
2022-12-04T06:31:29.000Z,195.70
2022-12-04T06:32:28.980Z,231.10
2022-12-04T06:33:28.929Z,255.50
2022-12-04T06:34:28.894Z,260.70
2022-12-04T06:35:28.893Z,252.10
2022-12-04T06:36:28.870Z,281.90
2022-12-04T06:37:28.903Z,138.40
2022-12-04T06:38:28.856Z,182.60
2022-12-04T06:39:28.857Z,162.00
2022-12-04T06:40:28.841Z,180.00
2022-12-04T06:41:28.812Z,212.30
2022-12-04T06:42:28.869Z,227.00
2022-12-04T06:43:28.798Z,235.70
2022-12-04T06:44:28.785Z,269.50
2022-12-04T06:45:28.782Z,267.50
2022-12-04T06:46:28.821Z,187.90
2022-12-04T06:47:28.800Z,206.00
2022-12-04T06:48:28.731Z,239.80
2022-12-04T06:49:28.726Z,241.50
2022-12-04T06:50:28.722Z,173.30
2022-12-04T06:51:28.689Z,184.50
2022-12-04T06:52:28.737Z,141.10
2022-12-04T06:53:28.677Z,191.20
2022-12-04T06:54:28.675Z,169.80
2022-12-04T06:55:28.670Z,187.30
2022-12-04T06:56:28.677Z,224.70
2022-12-04T06:57:28.655Z,232.80
2022-12-04T06:58:28.650Z,217.10
2022-12-04T06:59:28.602Z,274.40
2022-12-04T07:00:28.592Z,226.70
2022-12-04T07:01:28.624Z,267.50
2022-12-04T07:02:28.655Z,157.30
2022-12-04T07:03:28.586Z,156.20
2022-12-04T07:04:28.565Z,165.00
2022-12-04T07:05:28.541Z,253.70
2022-12-04T07:06:28.560Z,272.20
2022-12-04T07:07:28.565Z,161.50
2022-12-04T07:08:28.536Z,187.90
2022-12-04T07:09:28.508Z,218.40
2022-12-04T07:10:28.538Z,248.90
2022-12-04T07:11:28.480Z,251.80
2022-12-04T07:12:28.535Z,247.90
2022-12-04T07:13:28.462Z,210.00
2022-12-04T07:14:28.478Z,196.60
2022-12-04T07:15:28.436Z,230.90
2022-12-04T07:16:28.522Z,186.30
2022-12-04T07:17:28.417Z,233.40
2022-12-04T07:18:28.445Z,233.10
2022-12-04T07:19:28.387Z,220.20
2022-12-04T07:20:28.406Z,205.00
2022-12-04T07:21:28.471Z,415.10
2022-12-04T07:22:28.358Z,213.20
2022-12-04T07:23:28.385Z,167.40
2022-12-04T07:24:28.356Z,212.80
2022-12-04T07:25:28.330Z,240.60
2022-12-04T07:26:28.307Z,262.90
2022-12-04T07:27:28.300Z,234.60
2022-12-04T07:28:28.338Z,292.50
2022-12-04T07:29:28.270Z,203.40
2022-12-04T07:30:28.257Z,170.70
2022-12-04T07:31:28.344Z,264.00
2022-12-04T07:32:28.230Z,276.50
2022-12-04T07:33:28.278Z,270.10
2022-12-04T07:34:28.241Z,373.60
2022-12-04T07:35:28.215Z,251.70
2022-12-04T07:36:28.209Z,284.10
2022-12-04T07:37:28.195Z,279.30
2022-12-04T07:38:28.183Z,257.70
2022-12-04T07:39:28.207Z,188.20
2022-12-04T07:40:28.160Z,219.40
2022-12-04T07:41:28.144Z,241.70
2022-12-04T07:42:28.150Z,222.10
2022-12-04T07:43:28.122Z,246.10
2022-12-04T07:44:28.141Z,327.70
2022-12-04T07:45:28.130Z,256.70
2022-12-04T07:46:28.186Z,340.70
2022-12-04T07:47:28.071Z,319.30
2022-12-04T07:48:33.170Z,274.80
2022-12-04T07:49:29.082Z,253.40
2022-12-04T07:50:28.058Z,244.60
2022-12-04T07:51:28.025Z,268.10
2022-12-04T07:52:28.027Z,336.80
2022-12-04T07:53:27.999Z,281.60
2022-12-04T07:54:28.046Z,360.20
2022-12-04T07:55:27.976Z,322.10
2022-12-04T07:56:27.966Z,403.80
2022-12-04T07:57:27.952Z,370.60
2022-12-04T07:58:27.926Z,950.30
2022-12-04T07:59:27.976Z,862.80
2022-12-04T08:00:27.926Z,182.00
2022-12-04T08:01:27.954Z,381.00
2022-12-04T08:02:27.890Z,398.60
2022-12-04T08:03:27.893Z,259.90
2022-12-04T08:04:27.990Z,299.10
2022-12-04T08:05:27.878Z,650.90
2022-12-04T08:06:27.856Z,460.30
2022-12-04T08:07:27.909Z,999.90
2022-12-04T08:08:27.853Z,451.80
2022-12-04T08:09:27.887Z,463.40
2022-12-04T08:10:27.813Z,729.30
2022-12-04T08:11:27.785Z,302.30
2022-12-04T08:12:27.799Z,477.70
2022-12-04T08:13:27.777Z,862.60
2022-12-04T08:14:27.815Z,985.10
2022-12-04T08:15:27.747Z,999.90
2022-12-04T08:16:27.827Z,999.90
2022-12-04T08:17:27.802Z,999.90
2022-12-04T08:18:27.741Z,933.10
2022-12-04T08:19:27.746Z,999.90
2022-12-04T08:20:27.710Z,516.00
2022-12-04T08:21:27.689Z,999.90
2022-12-04T08:22:27.679Z,999.90
2022-12-04T08:23:27.676Z,764.40
2022-12-04T08:24:27.695Z,564.70
2022-12-04T08:25:27.655Z,771.90
2022-12-04T08:26:27.659Z,598.20
2022-12-04T08:27:27.621Z,999.90
2022-12-04T08:28:27.617Z,964.40
2022-12-04T08:29:27.626Z,676.90
2022-12-04T08:30:27.590Z,999.90
2022-12-04T08:31:27.675Z,999.90
2022-12-04T08:32:27.577Z,999.90
2022-12-04T08:33:27.569Z,999.90
2022-12-04T08:34:27.587Z,303.40
2022-12-04T08:35:27.521Z,294.30
2022-12-04T08:36:27.541Z,127.60
2022-12-04T08:37:27.556Z,34.00
2022-12-04T08:38:27.522Z,999.90
2022-12-04T08:39:27.546Z,999.90
2022-12-04T08:40:27.508Z,999.90
2022-12-04T08:41:27.487Z,999.90
2022-12-04T08:42:27.457Z,999.90
2022-12-04T08:43:27.462Z,999.90
2022-12-04T08:44:27.482Z,999.90
2022-12-04T08:45:27.443Z,999.90
2022-12-04T08:46:27.539Z,999.90
2022-12-04T08:47:27.402Z,999.90
2022-12-04T08:48:27.414Z,999.90
2022-12-04T08:49:27.436Z,215.80
2022-12-04T08:50:27.435Z,324.80
2022-12-04T08:51:27.360Z,340.70
2022-12-04T08:52:27.361Z,213.40
2022-12-04T08:53:27.342Z,225.70
2022-12-04T08:54:31.699Z,188.10
2022-12-04T08:55:28.321Z,999.90
2022-12-04T08:56:27.330Z,999.90
2022-12-04T08:57:27.318Z,999.90
2022-12-04T08:58:27.277Z,999.90
2022-12-04T08:59:27.257Z,999.90
2022-12-04T09:00:27.327Z,999.90
2022-12-04T09:01:27.303Z,999.90
2022-12-04T09:02:27.252Z,999.90
2022-12-04T09:03:30.899Z,999.90
2022-12-04T09:04:27.317Z,999.90
2022-12-04T09:05:27.253Z,999.90
2022-12-04T09:06:27.213Z,999.90
2022-12-04T09:07:27.261Z,999.90
2022-12-04T09:08:27.202Z,999.90
2022-12-04T09:09:27.156Z,999.90
2022-12-04T09:10:27.211Z,329.50
2022-12-04T09:11:27.131Z,308.40
2022-12-04T09:12:27.123Z,304.00
2022-12-04T09:13:27.101Z,265.50
2022-12-04T09:14:27.080Z,214.70
2022-12-04T09:15:27.140Z,255.90
2022-12-04T09:16:27.217Z,999.90
2022-12-04T09:17:27.055Z,999.90
2022-12-04T09:18:27.044Z,999.90
2022-12-04T09:19:27.054Z,999.90
2022-12-04T09:20:27.114Z,999.90
2022-12-04T09:21:27.028Z,999.90
2022-12-04T09:22:40.355Z,297.60
2022-12-04T09:23:28.009Z,105.60
2022-12-04T09:24:26.976Z,64.70
2022-12-04T09:25:27.007Z,999.90
2022-12-04T09:26:26.988Z,999.90
2022-12-04T09:27:26.969Z,999.90
2022-12-04T09:28:26.940Z,999.90
2022-12-04T09:29:26.928Z,999.90
2022-12-04T09:30:27.020Z,999.90
2022-12-04T09:31:27.033Z,317.90
2022-12-04T09:32:26.885Z,289.40
2022-12-04T09:33:26.887Z,288.30
2022-12-04T09:34:26.879Z,312.00
2022-12-04T09:35:26.904Z,999.90
2022-12-04T09:36:26.875Z,999.90
2022-12-04T09:37:26.841Z,999.90
2022-12-04T09:38:26.831Z,999.90
2022-12-04T09:39:26.817Z,999.90
2022-12-04T09:40:30.669Z,999.90
2022-12-04T09:41:27.796Z,999.90
2022-12-04T09:42:26.787Z,999.90
2022-12-04T09:43:26.776Z,999.90
2022-12-04T09:44:26.749Z,999.90
2022-12-04T09:45:26.776Z,999.90
2022-12-04T09:46:26.822Z,999.90
2022-12-04T09:47:26.741Z,999.90
2022-12-04T09:48:26.716Z,999.90
2022-12-04T09:49:26.702Z,999.90
2022-12-04T09:50:26.753Z,80.70
2022-12-04T09:51:26.679Z,999.90
2022-12-04T09:52:26.670Z,999.90
2022-12-04T09:53:26.657Z,999.90
2022-12-04T09:54:26.653Z,999.90
2022-12-04T09:55:26.666Z,999.90
2022-12-04T09:56:26.616Z,999.90
2022-12-04T09:57:26.632Z,999.90
2022-12-04T09:58:26.604Z,999.90
2022-12-04T09:59:26.590Z,999.90
2022-12-04T10:00:26.601Z,999.90
2022-12-04T10:01:26.587Z,999.90
2022-12-04T10:02:26.727Z,999.90
2022-12-04T10:03:26.651Z,999.90
2022-12-04T10:04:26.539Z,999.90
2022-12-04T10:05:26.557Z,999.90
2022-12-04T10:06:26.517Z,999.90
2022-12-04T10:07:26.513Z,999.90
2022-12-04T10:08:26.488Z,999.90
2022-12-04T10:09:26.484Z,999.90
2022-12-04T10:10:26.501Z,999.90
2022-12-04T10:11:32.066Z,999.90
2022-12-04T10:12:27.462Z,999.90
2022-12-04T10:13:26.441Z,999.90
2022-12-04T10:14:26.433Z,999.90
2022-12-04T10:15:26.478Z,999.90
2022-12-04T10:16:26.411Z,999.90
2022-12-04T10:17:32.217Z,999.90
2022-12-04T10:18:27.374Z,999.90
2022-12-04T10:19:26.360Z,999.90
2022-12-04T10:20:26.388Z,999.90
2022-12-04T10:21:26.339Z,999.90
2022-12-04T10:22:26.319Z,999.90
2022-12-04T10:23:26.316Z,999.90
2022-12-04T10:24:26.321Z,999.90
2022-12-04T10:25:26.331Z,999.90
2022-12-04T10:26:26.282Z,999.90
2022-12-04T10:27:26.279Z,999.90
2022-12-04T10:28:26.252Z,999.90
2022-12-04T10:29:26.256Z,999.90
2022-12-04T10:30:26.282Z,999.90
2022-12-04T10:31:26.307Z,999.90
2022-12-04T10:32:26.223Z,999.90
2022-12-04T10:33:26.199Z,999.90
2022-12-04T10:34:26.188Z,999.90
2022-12-04T10:35:26.209Z,999.90
2022-12-04T10:36:26.149Z,999.90
2022-12-04T10:37:26.160Z,999.90
2022-12-04T10:38:26.146Z,999.90
2022-12-04T10:39:26.140Z,999.90
2022-12-04T10:40:26.163Z,999.90
2022-12-04T10:41:26.133Z,999.90
2022-12-04T10:42:26.105Z,999.90
2022-12-04T10:43:26.093Z,999.90
2022-12-04T10:44:26.068Z,999.90
2022-12-04T10:45:26.104Z,999.90
2022-12-04T10:46:26.105Z,999.90
2022-12-04T10:47:26.056Z,999.90
2022-12-04T10:48:26.036Z,999.90
2022-12-04T10:49:26.048Z,999.90
2022-12-04T10:50:26.046Z,999.90
2022-12-04T10:51:26.017Z,999.90
2022-12-04T10:52:26.007Z,999.90
2022-12-04T10:53:26.000Z,999.90
2022-12-04T10:54:25.975Z,999.90
2022-12-04T10:55:25.964Z,999.90
2022-12-04T10:56:25.986Z,999.90
2022-12-04T10:57:25.932Z,999.90
2022-12-04T10:58:25.924Z,999.90
2022-12-04T10:59:25.909Z,999.90
2022-12-04T11:00:25.904Z,999.90
2022-12-04T11:01:26.026Z,999.90
2022-12-04T11:02:26.115Z,999.90
2022-12-04T11:03:26.058Z,999.90
2022-12-04T11:04:25.856Z,999.90
2022-12-04T11:05:25.868Z,999.90
2022-12-04T11:06:25.884Z,999.90
2022-12-04T11:07:25.811Z,999.90
2022-12-04T11:08:25.869Z,999.90
2022-12-04T11:09:25.800Z,999.90
2022-12-04T11:10:25.790Z,999.90
2022-12-04T11:11:25.824Z,999.90
2022-12-04T11:12:25.773Z,999.90
2022-12-04T11:13:25.753Z,999.90
2022-12-04T11:14:25.746Z,999.90
2022-12-04T11:15:25.741Z,999.90
2022-12-04T11:16:25.811Z,999.90
2022-12-04T11:17:25.725Z,999.90
2022-12-04T11:18:25.702Z,999.90
2022-12-04T11:19:25.699Z,999.90
2022-12-04T11:20:25.660Z,999.90
2022-12-04T11:21:25.720Z,999.90
2022-12-04T11:22:25.672Z,999.90
2022-12-04T11:23:25.656Z,999.90
2022-12-04T11:24:25.640Z,999.90
2022-12-04T11:25:25.638Z,999.90
2022-12-04T11:26:25.651Z,999.90
2022-12-04T11:27:25.604Z,999.90
2022-12-04T11:28:41.237Z,999.90
2022-12-04T11:29:26.578Z,999.90
2022-12-04T11:30:25.582Z,999.90
2022-12-04T11:31:25.724Z,999.90
2022-12-04T11:32:25.556Z,999.90
2022-12-04T11:33:25.543Z,999.90
2022-12-04T11:34:25.552Z,999.90
2022-12-04T11:35:25.518Z,999.90
2022-12-04T11:36:25.555Z,999.90
2022-12-04T11:37:25.509Z,999.90
2022-12-04T11:38:25.479Z,999.90
2022-12-04T11:39:25.468Z,999.90
2022-12-04T11:40:25.447Z,999.90
2022-12-04T11:41:25.499Z,999.90
2022-12-04T11:42:25.432Z,999.90
2022-12-04T11:43:25.453Z,999.90
2022-12-04T11:44:25.426Z,999.90
2022-12-04T11:45:25.423Z,999.90
2022-12-04T11:46:25.494Z,999.90
2022-12-04T11:47:25.386Z,999.90
2022-12-04T11:48:25.395Z,999.90
2022-12-04T11:49:25.366Z,999.90
2022-12-04T11:50:25.353Z,999.90
2022-12-04T11:51:25.385Z,999.90
2022-12-04T11:52:25.318Z,999.90
2022-12-04T11:53:25.323Z,999.90
2022-12-04T11:54:25.306Z,999.90
2022-12-04T11:55:28.767Z,999.90
2022-12-04T11:56:25.315Z,999.90
2022-12-04T11:57:25.272Z,999.90
2022-12-04T11:58:25.269Z,999.90
2022-12-04T11:59:25.247Z,999.90
2022-12-04T12:00:25.236Z,999.90
2022-12-04T12:01:25.268Z,999.90
2022-12-04T12:02:25.298Z,999.90
2022-12-04T12:03:25.318Z,999.90
2022-12-04T12:04:25.204Z,999.90
2022-12-04T12:05:25.195Z,999.90
2022-12-04T12:06:25.171Z,999.90
2022-12-04T12:07:25.204Z,95.40
2022-12-04T12:08:25.156Z,228.10
2022-12-04T12:09:25.133Z,999.90
2022-12-04T12:10:25.141Z,108.10
2022-12-04T12:11:25.116Z,386.60
2022-12-04T12:12:25.130Z,273.20
2022-12-04T12:13:25.113Z,183.70
2022-12-04T12:14:25.088Z,999.90
2022-12-04T12:15:25.073Z,999.90
2022-12-04T12:16:25.132Z,999.90
2022-12-04T12:17:25.089Z,999.90
2022-12-04T12:18:25.039Z,171.30
2022-12-04T12:19:25.040Z,999.90
2022-12-04T12:20:25.016Z,999.90
2022-12-04T12:21:25.005Z,146.50
2022-12-04T12:22:25.013Z,999.90
2022-12-04T12:23:24.971Z,147.70
2022-12-04T12:24:24.970Z,999.90
2022-12-04T12:25:25.100Z,999.90
2022-12-04T12:26:24.956Z,151.00
2022-12-04T12:27:24.977Z,62.20
2022-12-04T12:28:24.929Z,231.60